createdAt,value
2023-02-24T00:01:51.320Z,19.50
2023-02-24T00:04:21.455Z,19.50
2023-02-24T00:06:49.855Z,19.50
2023-02-24T17:33:47.962Z,18.70
2023-02-24T17:36:16.210Z,18.70
2023-02-24T17:38:44.038Z,18.70
2023-02-24T17:41:12.034Z,18.80
2023-02-24T17:43:39.873Z,18.80
2023-02-24T17:46:07.837Z,18.80
2023-02-24T17:48:36.037Z,18.90
2023-02-24T17:51:05.401Z,18.90
2023-02-24T17:53:33.273Z,18.90
2023-02-24T17:56:05.849Z,18.80
2023-02-24T17:58:34.734Z,18.80
2023-02-24T18:01:03.105Z,18.70
2023-02-24T18:03:31.881Z,18.70
2023-02-24T18:06:00.497Z,18.70
2023-02-24T18:08:30.552Z,18.70
2023-02-24T18:10:59.072Z,18.70
2023-02-24T18:13:27.035Z,18.70
2023-02-24T18:15:55.278Z,18.70
2023-02-24T18:18:24.332Z,18.70
2023-02-24T18:20:52.228Z,18.70
2023-02-24T18:23:20.362Z,18.80
2023-02-24T18:25:49.570Z,18.80
2023-02-24T18:28:17.397Z,18.70
2023-02-24T18:30:45.281Z,18.60
2023-02-24T18:33:13.296Z,18.60
2023-02-24T18:35:41.218Z,18.60
2023-02-24T18:38:09.169Z,18.60
2023-02-24T18:40:37.060Z,18.60
2023-02-24T18:43:06.364Z,18.60
2023-02-24T18:45:34.202Z,18.60
2023-02-24T18:48:04.898Z,18.70
2023-02-24T18:50:33.747Z,18.70
2023-02-24T18:53:01.623Z,18.80
2023-02-24T18:55:29.802Z,18.80
2023-02-24T18:57:57.640Z,18.90
2023-02-24T19:00:27.023Z,19.00
2023-02-24T19:02:54.915Z,19.10
2023-02-24T19:05:22.892Z,19.10
2023-02-24T19:07:50.804Z,19.10
2023-02-24T19:10:19.276Z,19.10
2023-02-24T19:12:50.538Z,19.10
2023-02-24T19:15:18.890Z,19.00
2023-02-24T19:17:48.105Z,19.00
2023-02-24T19:20:16.308Z,19.00
2023-02-24T19:22:44.820Z,19.00
2023-02-24T19:25:12.662Z,19.00
2023-02-24T19:27:40.516Z,19.00
2023-02-24T19:30:09.912Z,19.00
2023-02-24T19:32:38.008Z,19.00
2023-02-24T19:35:08.503Z,19.00
2023-02-24T19:37:36.351Z,19.00
2023-02-24T19:40:04.682Z,19.00
2023-02-24T19:42:32.548Z,19.10
2023-02-24T19:45:00.438Z,19.10
2023-02-24T19:47:28.337Z,19.20
2023-02-24T19:49:56.204Z,19.20
2023-02-24T19:52:25.603Z,19.20
2023-02-24T19:54:54.254Z,19.10
2023-02-24T19:57:22.154Z,19.10
2023-02-24T19:59:52.353Z,19.00
2023-02-24T20:02:20.300Z,19.00
2023-02-24T20:04:48.279Z,19.00
2023-02-24T20:07:16.199Z,18.90
2023-02-24T20:09:45.447Z,18.90
2023-02-24T20:12:13.711Z,18.80
2023-02-24T20:14:41.589Z,18.80
2023-02-24T20:17:09.571Z,18.90
2023-02-24T20:19:37.468Z,18.90
2023-02-24T20:22:05.486Z,18.90
2023-02-24T20:24:35.677Z,19.00
2023-02-24T20:27:05.513Z,19.00
2023-02-24T20:29:35.124Z,19.00
2023-02-24T20:32:03.823Z,19.00
2023-02-24T20:34:31.913Z,19.00
2023-02-24T20:36:59.840Z,19.10
2023-02-24T20:39:27.714Z,19.10
2023-02-24T20:41:55.589Z,19.10
2023-02-24T20:44:24.927Z,19.10
2023-02-24T20:46:52.896Z,19.10
2023-02-24T20:49:20.765Z,19.00
2023-02-24T20:51:48.674Z,19.00
2023-02-24T20:54:16.682Z,19.00
2023-02-24T20:56:46.992Z,19.00
2023-02-24T20:59:16.275Z,19.00
2023-02-24T21:01:47.529Z,19.00
2023-02-24T21:04:17.814Z,19.00
2023-02-24T21:06:46.577Z,19.00
2023-02-24T21:09:14.622Z,19.00
2023-02-24T21:11:42.564Z,19.00
2023-02-24T21:14:15.717Z,19.00
2023-02-24T21:16:46.713Z,19.00
2023-02-24T21:19:14.941Z,19.00
2023-02-24T21:21:42.878Z,18.90
2023-02-24T21:24:10.883Z,18.90
2023-02-24T21:26:38.793Z,19.00
2023-02-24T21:29:06.712Z,19.00
2023-02-24T21:31:34.711Z,19.00
2023-02-24T21:34:04.074Z,18.90
2023-02-24T21:36:31.958Z,19.00
2023-02-24T21:39:00.923Z,19.00
2023-02-24T21:41:28.878Z,19.00
2023-02-24T21:43:57.133Z,19.00
2023-02-24T21:46:28.081Z,19.00
2023-02-24T21:48:57.464Z,19.00
2023-02-24T21:51:27.720Z,19.00
2023-02-24T21:53:56.016Z,19.00
2023-02-24T21:56:26.418Z,19.00
2023-02-24T21:58:57.824Z,19.00
2023-02-24T22:01:27.812Z,19.00
2023-02-24T22:03:56.572Z,19.00
2023-02-24T22:06:29.569Z,19.00
2023-02-24T22:08:58.989Z,19.00
2023-02-24T22:11:27.105Z,19.00
2023-02-24T22:13:55.035Z,19.00
2023-02-24T22:16:24.973Z,19.00
2023-02-24T22:18:55.209Z,19.00
2023-02-24T22:21:25.049Z,19.00
2023-02-24T22:23:55.671Z,19.00
2023-02-24T22:26:24.534Z,19.00
2023-02-24T22:28:53.892Z,19.00
2023-02-24T22:31:24.178Z,19.00
2023-02-24T22:33:52.202Z,19.00
2023-02-24T22:36:21.978Z,19.00
2023-02-24T22:38:50.000Z,19.00
2023-02-24T22:41:21.113Z,19.00
2023-02-24T22:43:49.517Z,19.00
2023-02-24T22:46:19.196Z,19.00
2023-02-24T22:48:47.698Z,19.00
2023-02-24T22:51:16.044Z,19.00
2023-02-24T22:53:47.342Z,19.00
2023-02-24T22:56:16.686Z,19.00
2023-02-24T22:58:46.277Z,19.10
2023-02-24T23:01:16.010Z,19.10
2023-02-24T23:03:46.033Z,19.10
2023-02-24T23:06:16.417Z,19.10
2023-02-24T23:08:46.081Z,19.10
2023-02-24T23:11:16.049Z,19.00
2023-02-24T23:13:47.774Z,19.00
2023-02-24T23:16:18.443Z,19.00
2023-02-24T23:18:50.714Z,18.90
2023-02-24T23:21:20.540Z,18.90
2023-02-24T23:23:48.808Z,19.00
2023-02-24T23:26:17.909Z,18.90
2023-02-24T23:28:47.136Z,19.00
2023-02-24T23:31:19.749Z,19.00
2023-02-24T23:33:47.921Z,19.00
2023-02-24T23:36:16.804Z,19.00
2023-02-24T23:38:44.708Z,19.10
2023-02-24T23:41:13.737Z,19.00
2023-02-24T23:43:42.302Z,19.00
2023-02-24T23:46:13.514Z,19.00
2023-02-24T23:48:41.972Z,18.90
2023-02-24T23:51:13.357Z,19.00
2023-02-24T23:53:42.872Z,18.90
2023-02-24T23:56:14.546Z,18.90
2023-02-24T23:58:42.517Z,18.90
